createdAt,value
2019-03-22T00:01:42.945Z,100813.02
2019-03-22T00:04:09.528Z,100814.03
2019-03-22T00:06:36.110Z,100812.30
2019-03-22T00:09:02.695Z,100815.45
2019-03-22T00:11:29.302Z,100807.58
2019-03-22T00:13:55.881Z,100806.77
2019-03-22T00:16:22.466Z,100806.48
2019-03-22T00:18:49.075Z,100807.90
2019-03-22T00:21:15.661Z,100807.59
2019-03-22T00:23:42.257Z,100808.14
2019-03-22T00:26:08.835Z,100809.63
2019-03-22T00:28:35.455Z,100805.78
2019-03-22T00:31:02.029Z,100811.59
2019-03-22T00:33:28.640Z,100813.42
2019-03-22T00:35:55.216Z,100809.97
2019-03-22T00:38:21.831Z,100813.09
2019-03-22T00:40:48.414Z,100817.05
2019-03-22T00:43:15.036Z,100813.59
2019-03-22T00:45:41.616Z,100810.09
2019-03-22T00:48:08.228Z,100811.41
2019-03-22T00:50:34.802Z,100814.05
2019-03-22T00:53:01.392Z,100815.81
2019-03-22T00:55:27.980Z,100816.22
2019-03-22T00:57:54.598Z,100815.73
2019-03-22T01:00:21.172Z,100817.05
2019-03-22T01:02:47.765Z,100810.42
2019-03-22T01:05:14.344Z,100815.69
2019-03-22T01:07:40.939Z,100812.59
2019-03-22T01:10:07.521Z,100809.09
2019-03-22T01:12:34.094Z,100814.83
2019-03-22T01:15:00.677Z,100810.88
2019-03-22T01:17:27.259Z,100806.52
2019-03-22T01:19:53.913Z,100802.55
2019-03-22T01:22:20.485Z,100805.19
2019-03-22T01:24:47.062Z,100799.09
2019-03-22T01:27:13.647Z,100792.95
2019-03-22T01:29:40.217Z,100791.19
2019-03-22T01:32:06.865Z,100791.11
2019-03-22T01:34:33.454Z,100793.23
2019-03-22T01:37:00.031Z,100792.33
2019-03-22T01:39:26.609Z,100789.70
2019-03-22T01:41:53.190Z,100785.74
2019-03-22T01:44:19.767Z,100787.47
2019-03-22T01:46:46.338Z,100782.70
2019-03-22T01:49:12.937Z,100791.02
2019-03-22T01:51:39.511Z,100787.97
2019-03-22T01:54:06.119Z,100786.97
2019-03-22T01:56:32.690Z,100772.42
2019-03-22T01:58:59.299Z,100775.81
2019-03-22T02:01:25.885Z,100770.86
2019-03-22T02:03:52.489Z,100773.00
2019-03-22T02:06:19.076Z,100765.09
2019-03-22T02:08:45.700Z,100760.17
2019-03-22T02:11:12.272Z,100758.81
2019-03-22T02:13:38.888Z,100765.41
2019-03-22T02:16:05.475Z,100762.77
2019-03-22T02:18:32.070Z,100765.81
2019-03-22T02:20:58.653Z,100768.34
2019-03-22T02:23:25.239Z,100764.30
2019-03-22T02:25:51.818Z,100768.94
2019-03-22T02:28:18.439Z,100758.29
2019-03-22T02:30:45.015Z,100758.19
2019-03-22T02:33:11.609Z,100758.19
2019-03-22T02:35:38.174Z,100757.28
2019-03-22T02:38:04.753Z,100757.28
2019-03-22T02:40:31.339Z,100759.00
2019-03-22T02:42:57.927Z,100758.95
2019-03-22T02:45:24.512Z,100760.73
2019-03-22T02:47:51.159Z,100756.77
2019-03-22T02:50:19.740Z,100755.41
2019-03-22T02:52:46.049Z,100763.77
2019-03-22T02:55:12.723Z,100755.00
2019-03-22T02:57:39.294Z,100759.81
2019-03-22T03:00:05.975Z,100761.54
2019-03-22T03:02:32.563Z,100763.31
2019-03-22T03:04:59.166Z,100754.95
2019-03-22T03:07:25.741Z,100756.67
2019-03-22T03:09:52.337Z,100762.32
2019-03-22T03:12:18.926Z,100762.73
2019-03-22T03:14:45.637Z,100760.95
2019-03-22T03:17:12.337Z,100760.04
2019-03-22T03:19:38.966Z,100757.86
2019-03-22T03:22:05.532Z,100761.41
2019-03-22T03:24:32.146Z,100756.54
2019-03-22T03:26:58.737Z,100751.72
2019-03-22T03:29:25.435Z,100746.50
2019-03-22T03:31:52.034Z,100754.81
2019-03-22T03:34:18.751Z,100753.09
2019-03-22T03:36:45.378Z,100753.09
2019-03-22T03:39:12.054Z,100752.63
2019-03-22T03:41:38.622Z,100764.50
2019-03-22T03:44:05.238Z,100768.45
2019-03-22T03:46:31.821Z,100770.23
2019-03-22T03:48:58.432Z,100772.87
2019-03-22T03:51:25.021Z,100774.59
2019-03-22T03:53:51.623Z,100768.91
2019-03-22T03:56:18.205Z,100773.81
2019-03-22T03:58:52.176Z,100779.09
2019-03-22T04:01:13.192Z,100774.68
2019-03-22T04:03:39.771Z,100779.87
2019-03-22T04:06:06.478Z,100769.41
2019-03-22T04:08:33.102Z,100762.86
2019-03-22T04:10:59.683Z,100760.67
2019-03-22T04:13:26.256Z,100754.95
2019-03-22T04:15:52.863Z,100746.22
2019-03-22T04:18:19.539Z,100742.27
2019-03-22T04:20:46.117Z,100731.31
2019-03-22T04:23:12.714Z,100737.95
2019-03-22T04:25:39.288Z,100737.09
2019-03-22T04:28:05.864Z,100739.33
2019-03-22T04:30:32.454Z,100742.41
2019-03-22T04:32:59.025Z,100742.37
2019-03-22T04:35:25.605Z,100737.09
2019-03-22T04:37:52.190Z,100742.77
2019-03-22T04:40:18.789Z,100740.59
2019-03-22T04:42:45.415Z,100739.67
2019-03-22T04:45:12.020Z,100740.09
2019-03-22T04:47:38.605Z,100742.72
2019-03-22T04:50:05.215Z,100734.76
2019-03-22T04:52:31.824Z,100739.53
2019-03-22T04:54:58.482Z,100732.85
2019-03-22T04:57:25.063Z,100738.08
2019-03-22T04:59:51.667Z,100734.07
2019-03-22T05:02:18.318Z,100745.38
2019-03-22T05:04:44.922Z,100756.34
2019-03-22T05:07:11.500Z,100758.87
2019-03-22T05:09:38.099Z,100762.64
2019-03-22T05:12:04.690Z,100764.32
2019-03-22T05:14:31.299Z,100760.66
2019-03-22T05:16:57.880Z,100758.38
2019-03-22T05:19:24.474Z,100757.92
2019-03-22T05:21:51.074Z,100764.52
2019-03-22T05:24:18.433Z,100761.83
2019-03-22T05:26:45.113Z,100774.11
2019-03-22T05:29:11.694Z,100772.80
2019-03-22T05:31:38.274Z,100778.02
2019-03-22T05:34:04.849Z,100774.92
2019-03-22T05:36:31.438Z,100781.33
2019-03-22T05:38:58.062Z,100782.04
2019-03-22T05:41:24.651Z,100779.30
2019-03-22T05:43:51.219Z,100781.83
2019-03-22T05:46:17.789Z,100776.14
2019-03-22T05:48:44.374Z,100777.52
2019-03-22T05:51:10.958Z,100773.16
2019-03-22T05:53:37.562Z,100774.94
2019-03-22T05:56:04.148Z,100779.34
2019-03-22T05:58:30.726Z,100778.89
2019-03-22T06:00:57.302Z,100777.57
2019-03-22T06:03:23.884Z,100781.02
2019-03-22T06:05:50.461Z,100776.55
2019-03-22T06:08:17.042Z,100776.01
2019-03-22T06:10:43.625Z,100784.63
2019-03-22T06:13:10.211Z,100781.48
2019-03-22T06:15:36.800Z,100789.80
2019-03-22T06:18:03.485Z,100786.25
2019-03-22T06:20:30.117Z,100790.21
2019-03-22T06:22:56.697Z,100788.44
2019-03-22T06:25:23.299Z,100793.92
2019-03-22T06:27:49.877Z,100788.95
2019-03-22T06:30:16.484Z,100791.02
2019-03-22T06:32:43.067Z,100788.67
2019-03-22T06:35:09.679Z,100795.08
2019-03-22T06:37:36.253Z,100797.56
2019-03-22T06:40:02.831Z,100811.01
2019-03-22T06:42:29.420Z,100816.04
2019-03-22T06:44:56.019Z,100824.15
2019-03-22T06:47:22.702Z,100830.94
2019-03-22T06:49:49.290Z,100835.97
2019-03-22T06:52:15.906Z,100840.95
2019-03-22T06:54:42.479Z,100842.83
2019-03-22T06:57:09.099Z,100845.09
2019-03-22T06:59:35.676Z,100849.98
2019-03-22T07:02:02.295Z,100849.60
2019-03-22T07:04:28.878Z,100850.03
2019-03-22T07:06:55.488Z,100861.52
2019-03-22T07:09:22.080Z,100865.16
2019-03-22T07:11:48.684Z,100865.50
2019-03-22T07:14:15.292Z,100866.77
2019-03-22T07:16:42.002Z,100863.02
2019-03-22T07:19:08.609Z,100857.97
2019-03-22T07:21:35.263Z,100857.84
2019-03-22T07:24:01.838Z,100867.33
2019-03-22T07:26:30.119Z,100869.85
2019-03-22T07:28:56.850Z,100876.80
2019-03-22T07:31:23.474Z,100871.76
2019-03-22T07:33:50.045Z,100879.05
2019-03-22T07:36:16.681Z,100884.50
2019-03-22T07:38:43.263Z,100884.75
2019-03-22T07:41:09.871Z,100893.36
2019-03-22T07:43:36.539Z,100901.98
2019-03-22T07:46:03.150Z,100915.63
2019-03-22T07:48:29.737Z,100913.84
2019-03-22T07:50:56.359Z,100917.31
2019-03-22T07:53:22.941Z,100928.31
2019-03-22T07:55:49.548Z,100931.42
2019-03-22T07:58:16.133Z,100933.61
2019-03-22T08:00:42.712Z,100934.53
2019-03-22T08:03:09.293Z,100932.75
2019-03-22T08:05:35.885Z,100934.01
2019-03-22T08:08:02.455Z,100933.95
2019-03-22T08:10:29.037Z,100932.96
2019-03-22T08:12:55.604Z,100938.26
2019-03-22T08:15:22.219Z,100949.77
2019-03-22T08:17:48.872Z,100942.23
2019-03-22T08:20:15.435Z,100939.09
2019-03-22T08:22:42.008Z,100932.34
2019-03-22T08:25:08.589Z,100933.55
2019-03-22T08:27:35.187Z,100928.16
2019-03-22T08:30:01.802Z,100935.11
2019-03-22T08:32:28.426Z,100934.64
2019-03-22T08:34:54.996Z,100931.94
2019-03-22T08:37:21.572Z,100930.14
2019-03-22T08:39:48.160Z,100927.16
2019-03-22T08:42:14.760Z,100929.88
2019-03-22T08:44:41.402Z,100926.92
2019-03-22T08:47:08.090Z,100923.88
2019-03-22T08:49:34.852Z,100924.80
2019-03-22T08:52:01.588Z,100920.42
2019-03-22T08:54:28.228Z,100917.90
2019-03-22T08:56:54.853Z,100909.71
2019-03-22T08:59:21.423Z,100906.42
2019-03-22T09:01:48.064Z,100896.02
2019-03-22T09:04:14.652Z,100893.43
2019-03-22T09:06:41.295Z,100899.13
2019-03-22T09:09:07.896Z,100899.46
2019-03-22T09:11:34.499Z,100894.56
2019-03-22T09:14:01.087Z,100899.73
2019-03-22T09:16:30.644Z,100901.30
2019-03-22T09:18:56.036Z,100897.20
2019-03-22T09:21:22.711Z,100889.72
2019-03-22T09:23:49.284Z,100897.86
2019-03-22T09:26:15.899Z,100887.55
2019-03-22T09:28:42.519Z,100886.87
2019-03-22T09:31:10.780Z,100889.98
2019-03-22T09:33:37.404Z,100886.41
2019-03-22T09:36:03.993Z,100889.33
2019-03-22T09:38:30.687Z,100881.20
2019-03-22T09:40:57.393Z,100878.39
2019-03-22T09:43:23.982Z,100881.37
2019-03-22T09:45:50.558Z,100886.98
2019-03-22T09:48:17.255Z,100885.22
2019-03-22T09:50:43.823Z,100875.09
2019-03-22T09:53:10.439Z,100876.02
2019-03-22T09:55:37.068Z,100875.09
2019-03-22T09:58:03.652Z,100869.17
2019-03-22T10:00:30.327Z,100868.19
2019-03-22T10:02:57.030Z,100872.45
2019-03-22T10:05:23.706Z,100869.34
2019-03-22T10:07:50.352Z,100863.05
2019-03-22T10:10:16.995Z,100856.83
2019-03-22T10:12:43.628Z,100857.23
2019-03-22T10:15:10.193Z,100858.16
2019-03-22T10:17:36.854Z,100860.15
2019-03-22T10:20:03.555Z,100859.95
2019-03-22T10:22:30.231Z,100856.67
2019-03-22T10:24:56.855Z,100855.48
2019-03-22T10:27:23.487Z,100859.76
2019-03-22T10:29:50.130Z,100849.58
2019-03-22T10:32:16.768Z,100852.42
2019-03-22T10:34:43.400Z,100855.87
2019-03-22T10:37:10.018Z,100861.03
2019-03-22T10:39:36.624Z,100860.03
2019-03-22T10:42:03.323Z,100866.09
2019-03-22T10:44:29.973Z,100869.31
2019-03-22T10:46:56.751Z,100874.84
2019-03-22T10:49:23.414Z,100869.59
2019-03-22T10:51:57.033Z,100874.64
2019-03-22T10:54:18.380Z,100867.02
2019-03-22T10:56:44.963Z,100864.55
2019-03-22T10:59:11.625Z,100865.77
2019-03-22T11:01:51.968Z,100869.56
2019-03-22T11:06:34.103Z,100846.89
2019-03-22T11:09:00.678Z,100853.03
2019-03-22T11:11:27.268Z,100860.34
2019-03-22T11:13:53.854Z,100860.34
2019-03-22T11:16:20.531Z,100853.45
2019-03-22T11:18:47.104Z,100856.27
2019-03-22T11:21:13.730Z,100859.28
2019-03-22T11:23:40.336Z,100859.72
2019-03-22T11:26:06.911Z,100866.25
2019-03-22T11:28:33.496Z,100860.64
2019-03-22T11:31:04.667Z,100852.74
2019-03-22T11:33:28.386Z,100859.95
2019-03-22T11:35:54.956Z,100864.89
2019-03-22T11:38:22.976Z,100861.61
2019-03-22T11:40:49.643Z,100861.98
2019-03-22T11:43:16.218Z,100854.25
2019-03-22T11:45:42.803Z,100858.66
2019-03-22T11:48:09.385Z,100856.88
2019-03-22T11:50:35.989Z,100858.38
2019-03-22T11:53:02.560Z,100856.73
2019-03-22T11:55:29.140Z,100857.37
2019-03-22T11:57:55.726Z,100848.30
2019-03-22T12:00:22.314Z,100851.95
2019-03-22T12:02:48.882Z,100842.28
2019-03-22T12:05:15.459Z,100840.02
2019-03-22T12:07:42.043Z,100843.31
2019-03-22T12:10:08.622Z,100835.97
2019-03-22T12:12:35.194Z,100832.56
2019-03-22T12:15:01.873Z,100828.72
2019-03-22T12:17:28.462Z,100831.12
2019-03-22T12:19:55.030Z,100824.80
2019-03-22T12:22:21.638Z,100823.18
2019-03-22T12:24:48.217Z,100825.69
2019-03-22T12:27:14.798Z,100823.11
2019-03-22T12:29:41.414Z,100818.88
2019-03-22T12:32:07.986Z,100819.10
2019-03-22T12:34:34.974Z,100820.57
2019-03-22T12:37:01.568Z,100819.72
2019-03-22T12:39:28.180Z,100818.86
2019-03-22T12:41:54.754Z,100819.32
2019-03-22T12:44:21.363Z,100824.63
2019-03-22T12:46:49.230Z,100826.45
2019-03-22T12:49:16.155Z,100826.34
2019-03-22T12:51:42.781Z,100825.41
2019-03-22T12:54:09.391Z,100827.20
2019-03-22T12:56:36.007Z,100828.54
2019-03-22T12:59:02.602Z,100830.72
2019-03-22T13:01:29.177Z,100829.86
2019-03-22T13:03:55.799Z,100826.81
2019-03-22T13:06:22.377Z,100824.63
2019-03-22T13:08:48.996Z,100833.63
2019-03-22T13:11:15.568Z,100827.53
2019-03-22T13:13:42.178Z,100822.30
2019-03-22T13:16:08.757Z,100822.30
2019-03-22T13:18:35.374Z,100817.06
2019-03-22T13:21:01.959Z,100816.13
2019-03-22T13:23:29.972Z,100801.86
2019-03-22T13:25:56.551Z,100812.22
2019-03-22T13:28:23.160Z,100808.09
2019-03-22T13:30:49.736Z,100800.38
2019-03-22T13:33:16.353Z,100808.03
2019-03-22T13:35:42.966Z,100808.09
2019-03-22T13:38:09.538Z,100801.40
2019-03-22T13:40:36.122Z,100800.67
2019-03-22T13:43:02.699Z,100801.45
2019-03-22T13:45:29.276Z,100799.11
2019-03-22T13:47:55.869Z,100794.27
2019-03-22T13:50:22.510Z,100785.76
2019-03-22T13:52:49.114Z,100785.83
2019-03-22T13:55:15.760Z,100793.33
2019-03-22T13:57:42.343Z,100791.46
2019-03-22T14:00:08.963Z,100796.98
2019-03-22T14:02:35.542Z,100791.66
2019-03-22T14:05:02.238Z,100792.40
2019-03-22T14:07:28.808Z,100798.88
2019-03-22T14:09:55.421Z,100796.09
2019-03-22T14:12:22.024Z,100792.41
2019-03-22T14:14:48.653Z,100795.69
2019-03-22T14:17:15.224Z,100793.64
2019-03-22T14:19:41.931Z,100792.11
2019-03-22T14:22:08.506Z,100798.50
2019-03-22T14:24:35.122Z,100793.02
2019-03-22T14:27:01.706Z,100790.05
2019-03-22T14:29:28.298Z,100791.62
2019-03-22T14:31:54.888Z,100791.89
2019-03-22T14:34:21.515Z,100797.96
2019-03-22T14:36:48.187Z,100797.42
2019-03-22T14:39:14.805Z,100796.24
2019-03-22T14:41:41.425Z,100793.59
2019-03-22T14:44:08.072Z,100794.13
2019-03-22T14:46:34.651Z,100786.64
2019-03-22T14:49:01.344Z,100783.44
2019-03-22T14:51:28.183Z,100776.66
2019-03-22T14:53:54.801Z,100782.76
2019-03-22T14:56:21.378Z,100784.48
2019-03-22T14:58:47.986Z,100787.13
2019-03-22T15:01:14.568Z,100785.80
2019-03-22T15:03:41.153Z,100784.02
2019-03-22T15:06:07.736Z,100782.22
2019-03-22T15:08:34.316Z,100776.84
2019-03-22T15:11:00.897Z,100778.16
2019-03-22T15:13:27.479Z,100780.89
2019-03-22T15:15:54.064Z,100779.10
2019-03-22T15:18:20.645Z,100788.06
2019-03-22T15:20:47.269Z,100785.95
2019-03-22T15:23:13.952Z,100793.13
2019-03-22T15:25:40.507Z,100794.20
2019-03-22T15:28:07.092Z,100797.03
2019-03-22T15:30:33.680Z,100796.78
2019-03-22T15:33:00.260Z,100792.63
2019-03-22T15:35:26.862Z,100786.20
2019-03-22T15:37:53.447Z,100779.57
2019-03-22T15:40:20.026Z,100770.11
2019-03-22T15:42:46.634Z,100775.19
2019-03-22T15:45:13.347Z,100771.35
2019-03-22T15:47:40.076Z,100775.14
2019-03-22T15:50:08.696Z,100782.55
2019-03-22T15:52:35.311Z,100784.55
2019-03-22T15:55:01.896Z,100779.91
2019-03-22T15:57:28.510Z,100786.14
2019-03-22T15:59:55.129Z,100787.47
2019-03-22T16:02:21.786Z,100787.47
2019-03-22T16:04:48.385Z,100793.70
2019-03-22T16:07:15.001Z,100797.67
2019-03-22T16:09:41.602Z,100792.91
2019-03-22T16:12:08.223Z,100792.91
2019-03-22T16:14:34.808Z,100781.44
2019-03-22T16:17:01.414Z,100782.41
2019-03-22T16:19:27.987Z,100782.02
2019-03-22T16:21:54.615Z,100778.11
2019-03-22T16:24:21.194Z,100785.19
2019-03-22T16:26:47.793Z,100780.36
2019-03-22T16:29:14.381Z,100778.97
2019-03-22T16:31:40.980Z,100776.84
2019-03-22T16:34:07.561Z,100786.98
2019-03-22T16:36:34.178Z,100787.13
2019-03-22T16:39:00.764Z,100790.70
2019-03-22T16:41:27.371Z,100802.22
2019-03-22T16:43:53.950Z,100800.03
2019-03-22T16:46:20.539Z,100804.94
2019-03-22T16:48:47.117Z,100804.15
2019-03-22T16:51:13.694Z,100804.15
2019-03-22T16:53:40.273Z,100804.31
2019-03-22T16:56:08.515Z,100798.22
2019-03-22T16:58:35.105Z,100790.34
2019-03-22T17:01:01.714Z,100793.52
2019-03-22T17:03:28.299Z,100793.98
2019-03-22T17:05:54.876Z,100790.61
2019-03-22T17:08:21.458Z,100788.48
2019-03-22T17:10:48.375Z,100791.27
2019-03-22T17:13:14.961Z,100802.03
2019-03-22T17:15:41.552Z,100800.77
2019-03-22T17:18:08.132Z,100801.70
2019-03-22T17:20:34.710Z,100797.78
2019-03-22T17:23:01.293Z,100801.00
2019-03-22T17:25:27.877Z,100805.50
2019-03-22T17:27:54.466Z,100805.09
2019-03-22T17:30:21.042Z,100799.01
2019-03-22T17:32:47.624Z,100801.75
2019-03-22T17:35:14.206Z,100800.89
2019-03-22T17:37:40.786Z,100795.66
2019-03-22T17:40:07.365Z,100799.23
2019-03-22T17:42:33.937Z,100801.02
2019-03-22T17:45:00.518Z,100813.00
2019-03-22T17:47:27.109Z,100810.35
2019-03-22T17:49:53.682Z,100809.56
2019-03-22T17:52:20.316Z,100812.73
2019-03-22T17:54:46.967Z,100814.58
2019-03-22T17:57:18.546Z,100817.75
2019-03-22T17:59:41.880Z,100819.23
2019-03-22T18:02:08.483Z,100831.68
2019-03-22T18:04:35.061Z,100833.06
2019-03-22T18:07:01.673Z,100828.30
2019-03-22T18:09:28.293Z,100828.76
2019-03-22T18:11:54.885Z,100823.13
2019-03-22T18:14:21.448Z,100820.94
2019-03-22T18:16:48.028Z,100823.25
2019-03-22T18:19:14.634Z,100830.39
2019-03-22T18:21:41.236Z,100835.38
2019-03-22T18:24:07.841Z,100830.21
2019-03-22T18:26:34.410Z,100824.64
2019-03-22T18:29:01.023Z,100821.59
2019-03-22T18:31:27.608Z,100820.46
2019-03-22T18:33:54.199Z,100817.05
2019-03-22T18:36:20.783Z,100817.63
2019-03-22T18:38:47.402Z,100819.94
2019-03-22T18:41:13.980Z,100822.70
2019-03-22T18:43:40.588Z,100824.15
2019-03-22T18:46:07.156Z,100815.56
2019-03-22T18:48:33.757Z,100814.48
2019-03-22T18:51:00.334Z,100814.66
2019-03-22T18:53:26.950Z,100805.27
2019-03-22T18:55:53.530Z,100820.45
2019-03-22T18:58:20.143Z,100810.61
2019-03-22T19:00:49.473Z,100815.27
2019-03-22T19:03:15.048Z,100819.06
2019-03-22T19:05:43.819Z,100821.16
2019-03-22T19:08:09.982Z,100825.81
2019-03-22T19:10:36.598Z,100832.73
2019-03-22T19:13:03.191Z,100826.78
2019-03-22T19:15:29.790Z,100813.88
2019-03-22T19:17:56.356Z,100817.60
2019-03-22T19:20:22.944Z,100816.13
2019-03-22T19:22:49.518Z,100810.20
2019-03-22T19:25:16.106Z,100813.97
2019-03-22T19:27:42.692Z,100811.17
2019-03-22T19:30:09.274Z,100815.34
2019-03-22T19:32:35.861Z,100812.90
2019-03-22T19:35:02.449Z,100823.62
2019-03-22T19:37:29.052Z,100816.36
2019-03-22T19:39:55.619Z,100812.19
2019-03-22T19:42:22.188Z,100813.71
2019-03-22T19:44:48.768Z,100806.00
2019-03-22T19:47:15.364Z,100806.23
2019-03-22T19:49:41.951Z,100803.34
2019-03-22T19:52:08.529Z,100806.72
2019-03-22T19:54:35.110Z,100807.78
2019-03-22T19:57:01.690Z,100804.88
2019-03-22T19:59:28.260Z,100805.92
2019-03-22T20:01:54.847Z,100804.25
2019-03-22T20:04:21.428Z,100804.75
2019-03-22T20:06:48.026Z,100796.48
2019-03-22T20:09:14.601Z,100807.03
2019-03-22T20:11:41.241Z,100801.75
2019-03-22T20:14:07.828Z,100803.94
2019-03-22T20:16:34.453Z,100794.70
2019-03-22T20:19:01.036Z,100789.94
2019-03-22T20:21:27.614Z,100787.34
2019-03-22T20:23:54.235Z,100784.76
2019-03-22T20:26:21.290Z,100791.34
2019-03-22T20:28:47.982Z,100789.98
2019-03-22T20:31:14.580Z,100785.98
2019-03-22T20:33:41.182Z,100791.97
2019-03-22T20:36:07.763Z,100788.88
2019-03-22T20:38:34.380Z,100788.52
2019-03-22T20:41:00.969Z,100796.84
2019-03-22T20:43:27.585Z,100801.70
2019-03-22T20:45:54.175Z,100803.48
2019-03-22T20:48:20.762Z,100799.63
2019-03-22T20:50:47.340Z,100808.62
2019-03-22T20:53:13.934Z,100797.81
2019-03-22T20:55:41.125Z,100792.68
2019-03-22T20:58:07.704Z,100794.50
2019-03-22T21:00:34.281Z,100791.58
2019-03-22T21:03:00.865Z,100798.27
2019-03-22T21:05:27.540Z,100796.19
2019-03-22T21:07:54.132Z,100798.52
2019-03-22T21:10:21.047Z,100792.95
2019-03-22T21:12:47.620Z,100792.64
2019-03-22T21:15:23.884Z,100787.51
2019-03-22T21:17:42.521Z,100788.96
2019-03-22T21:20:09.113Z,100784.73
2019-03-22T21:22:35.694Z,100790.58
2019-03-22T21:25:02.592Z,100785.04
2019-03-22T21:27:29.215Z,100779.94
2019-03-22T21:29:55.823Z,100787.06
2019-03-22T21:32:22.411Z,100779.79
2019-03-22T21:34:49.018Z,100776.55
2019-03-22T21:37:15.596Z,100774.49
2019-03-22T21:39:42.208Z,100768.49
2019-03-22T21:42:08.780Z,100768.16
2019-03-22T21:44:35.373Z,100766.52
2019-03-22T21:47:02.053Z,100763.52
2019-03-22T21:49:30.060Z,100764.51
2019-03-22T21:51:56.929Z,100767.22
2019-03-22T21:54:23.536Z,100761.25
2019-03-22T21:56:50.110Z,100758.75
2019-03-22T21:59:16.728Z,100756.23
2019-03-22T22:01:43.390Z,100747.64
2019-03-22T22:04:10.008Z,100748.58
2019-03-22T22:06:36.590Z,100747.80
2019-03-22T22:09:03.180Z,100747.47
2019-03-22T22:11:29.864Z,100755.86
2019-03-22T22:13:56.502Z,100742.77
2019-03-22T22:16:23.133Z,100737.55
2019-03-22T22:18:49.714Z,100741.54
2019-03-22T22:21:16.288Z,100743.80
2019-03-22T22:23:42.867Z,100750.91
2019-03-22T22:26:09.878Z,100757.56
2019-03-22T22:28:36.605Z,100753.77
2019-03-22T22:31:03.188Z,100753.44
2019-03-22T22:33:29.762Z,100752.20
2019-03-22T22:35:58.964Z,100754.48
2019-03-22T22:38:24.629Z,100752.91
2019-03-22T22:40:51.208Z,100756.06
2019-03-22T22:43:17.790Z,100754.75
2019-03-22T22:45:44.376Z,100753.96
2019-03-22T22:48:10.940Z,100756.63
2019-03-22T22:50:37.521Z,100747.91
2019-03-22T22:53:04.101Z,100747.09
2019-03-22T22:55:30.676Z,100748.47
2019-03-22T22:57:57.245Z,100745.92
2019-03-22T23:00:23.819Z,100756.06
2019-03-22T23:02:50.395Z,100754.81
2019-03-22T23:05:16.983Z,100753.16
2019-03-22T23:07:43.576Z,100748.02
2019-03-22T23:10:10.148Z,100743.73
2019-03-22T23:12:36.755Z,100748.23
2019-03-22T23:15:03.327Z,100748.85
2019-03-22T23:17:29.910Z,100747.64
2019-03-22T23:19:56.502Z,100742.91
2019-03-22T23:22:23.083Z,100757.02
2019-03-22T23:24:49.689Z,100759.73
2019-03-22T23:27:16.267Z,100758.08
2019-03-22T23:29:42.836Z,100752.48
2019-03-22T23:32:09.408Z,100747.33
2019-03-22T23:34:36.025Z,100749.19
2019-03-22T23:37:02.635Z,100745.86
2019-03-22T23:39:29.211Z,100751.21
2019-03-22T23:41:55.797Z,100752.27
2019-03-22T23:44:22.365Z,100751.53
2019-03-22T23:46:48.951Z,100749.48
2019-03-22T23:49:15.535Z,100749.16
2019-03-22T23:51:42.124Z,100746.63
2019-03-22T23:54:08.716Z,100747.20
2019-03-22T23:56:35.343Z,100747.80
2019-03-22T23:59:01.923Z,100748.84
